Time;durP1;ratioP1;P1;durP2;ratioP2;P2;SDS_P1;SDS_P2;PMS_P1;PMS_P2;Temp;Humidity;BMP_temperature;BMP_pressure;BME280_temperature;BME280_humidity;BME280_pressure;Samples;Min_cycle;Max_cycle;Signal;HPM_P1;HPM_P2
2023/10/19 00:02:19;;;;;;;;;;;;;;;;;;4795623;29;25069;-72
2023/10/19 00:04:46;;;;;;;;;;;;;;;;;;4794246;29;29057;-72
2023/10/19 00:07:15;;;;;;;;;;;;;;;;;;4789743;29;25084;-72
2023/10/19 00:09:48;;;;;;;;;;;;;;;;;;4788980;29;25069;-72
2023/10/19 00:12:16;;;;;;;;;;;;;;;;;;4789756;29;25128;-72
2023/10/19 00:14:43;;;;;;;;;;;;;;;;;;4794701;29;28202;-72
2023/10/19 00:17:11;;;;;;;;;;;;;;;;;;4788413;29;27050;-72
2023/10/19 00:22:24;;;;;;;;;;;;;;;;;;4785999;29;27104;-72
2023/10/19 00:24:51;;;;;;;;;;;;;;;;;;4788395;29;25089;-73
2023/10/19 00:27:22;;;;;;;;;;;;;;;;;;4793867;29;25068;-72
2023/10/19 00:29:49;;;;;;;;;;;;;;;;;;4792362;29;26088;-72
2023/10/19 00:32:24;;;;;;;;;;;;;;;;;;4815326;29;27163;-71
2023/10/19 00:34:52;;;;;;;;;;;;;;;;;;4824954;29;25207;-72
2023/10/19 00:37:42;;;;;;;;;;;;;;;;;;4820799;29;25059;-71
2023/10/19 00:40:15;;;;;;;;;;;;;;;;;;4818943;29;28017;-71
2023/10/19 00:42:46;;;;;;;;;;;;;;;;;;4777345;29;397192;-72
2023/10/19 00:45:15;;;;;;;;;;;;;;;;;;4789080;29;254180;-73
2023/10/19 00:47:46;;;;;;;;;;;;;;;;;;4776497;29;260152;-72
2023/10/19 00:50:21;;;;;;;;;;;;;;;;;;4705224;29;959195;-72
2023/10/19 00:52:49;;;;;;;;;;;;;;;;;;4695494;29;441190;-72
2023/10/19 00:55:19;;;;;;;;;;;;;;;;;;4780261;29;193178;-72
2023/10/19 00:57:49;;;;;;;;;;;;;;;;;;4753562;29;288181;-72
2023/10/19 01:00:50;;;;;;;;;;;;;;;;;;4792679;29;323219;-73
2023/10/19 01:03:10;;;;;;;;;;;;;;;;;;4797669;29;108150;-73
2023/10/19 01:05:37;;;;;;;;;;;;;;;;;;4784843;29;201176;-73
2023/10/19 01:08:23;;;;;;;;;;;;;;;;;;4802220;29;169180;-73
2023/10/19 01:10:52;;;;;;;;;;;;;;;;;;4788021;29;231157;-73
2023/10/19 01:13:34;;;;;;;;;;;;;;;;;;4791736;29;134163;-73
2023/10/19 01:16:01;;;;;;;;;;;;;;;;;;4778514;29;190112;-73
2023/10/19 01:18:32;;;;;;;;;;;;;;;;;;4802652;29;132166;-73
2023/10/19 01:21:04;;;;;;;;;;;;;;;;;;4781191;29;270159;-74
2023/10/19 01:23:31;;;;;;;;;;;;;;;;;;4788955;29;530193;-74
2023/10/19 01:31:16;;;;;;;;;;;;;;;;;;4772285;29;245178;-73
2023/10/19 01:33:44;;;;;;;;;;;;;;;;;;4778062;29;249185;-73
2023/10/19 01:38:49;;;;;;;;;;;;;;;;;;4751022;29;303264;-73
2023/10/19 01:41:19;;;;;;;;;;;;;;;;;;4765100;29;287242;-74
2023/10/19 01:43:46;;;;;;;;;;;;;;;;;;4794492;29;209191;-74
2023/10/19 01:46:21;;;;;;;;;;;;;;;;;;4807055;29;131178;-75
2023/10/19 01:48:55;;;;;;;;;;;;;;;;;;4801922;29;169150;-75
2023/10/19 01:51:26;;;;;;;;;;;;;;;;;;4824396;29;25084;-75
2023/10/19 01:53:55;;;;;;;;;;;;;;;;;;4831723;29;28264;-75
2023/10/19 01:56:22;;;;;;;;;;;;;;;;;;4825548;29;27077;-75
2023/10/19 01:58:51;;;;;;;;;;;;;;;;;;4829432;29;25143;-75
2023/10/19 02:03:46;;;;;;;;;;;;;;;;;;4832768;29;29220;-76
2023/10/19 02:06:17;;;;;;;;;;;;;;;;;;4833977;29;27063;-77
2023/10/19 02:08:44;;;;;;;;;;;;;;;;;;4830161;29;28102;-78
2023/10/19 02:11:18;;;;;;;;;;;;;;;;;;4834129;29;26142;-77
2023/10/19 02:13:46;;;;;;;;;;;;;;;;;;4825140;29;28107;-76
2023/10/19 02:16:15;;;;;;;;;;;;;;;;;;4825489;29;26074;-79
2023/10/19 02:18:42;;;;;;;;;;;;;;;;;;4834844;29;25142;-77
2023/10/19 02:21:11;;;;;;;;;;;;;;;;;;4831560;29;25063;-78
2023/10/19 02:23:39;;;;;;;;;;;;;;;;;;4814901;29;28099;-77
2023/10/19 02:26:07;;;;;;;;;;;;;;;;;;4831272;29;29107;-76
2023/10/19 02:28:37;;;;;;;;;;;;;;;;;;4834503;29;25081;-76
2023/10/19 02:31:21;;;;;;;;;;;;;;;;;;4818341;29;28256;-81
2023/10/19 02:33:52;;;;;;;;;;;;;;;;;;4830556;29;28160;-76
2023/10/19 02:36:20;;;;;;;;;;;;;;;;;;4830665;29;25104;-76
2023/10/19 02:38:53;;;;;;;;;;;;;;;;;;4838337;29;29073;-77
2023/10/19 02:41:20;;;;;;;;;;;;;;;;;;4838378;29;25217;-77
2023/10/19 02:44:33;;;;;;;;;;;;;;;;;;4835491;29;28122;-77
2023/10/19 02:46:41;;;;;;;;;;;;;;;;;;4821756;29;29093;-77
2023/10/19 02:49:12;;;;;;;;;;;;;;;;;;4828307;29;29052;-78
2023/10/19 02:51:39;;;;;;;;;;;;;;;;;;4822354;29;25096;-78
2023/10/19 02:54:07;;;;;;;;;;;;;;;;;;4819190;29;29155;-78
2023/10/19 02:56:38;;;;;;;;;;;;;;;;;;4832438;29;25168;-77
2023/10/19 02:59:05;;;;;;;;;;;;;;;;;;4818913;29;27060;-77
2023/10/19 03:01:36;;;;;;;;;;;;;;;;;;4837400;29;25089;-80
2023/10/19 03:04:06;;;;;;;;;;;;;;;;;;4836673;29;28155;-78
2023/10/19 03:06:33;;;;;;;;;;;;;;;;;;4837455;29;25105;-78
2023/10/19 03:09:13;;;;;;;;;;;;;;;;;;4833610;29;25113;-79
2023/10/19 03:11:40;;;;;;;;;;;;;;;;;;4836286;29;26056;-77
2023/10/19 03:14:08;;;;;;;;;;;;;;;;;;4788051;29;276183;-77
2023/10/19 03:16:35;;;;;;;;;;;;;;;;;;4801349;29;71115;-80
2023/10/19 03:19:07;;;;;;;;;;;;;;;;;;4806222;29;137176;-78
2023/10/19 03:21:41;;;;;;;;;;;;;;;;;;4815064;29;117162;-77
2023/10/19 03:26:59;;;;;;;;;;;;;;;;;;4819227;29;113173;-77
2023/10/19 03:29:31;;;;;;;;;;;;;;;;;;4804766;29;92170;-77
2023/10/19 03:32:01;;;;;;;;;;;;;;;;;;4820546;29;140144;-76
2023/10/19 03:34:32;;;;;;;;;;;;;;;;;;4812339;29;89148;-76
2023/10/19 03:37:05;;;;;;;;;;;;;;;;;;4809727;29;112129;-77
2023/10/19 03:39:33;;;;;;;;;;;;;;;;;;4824236;29;77139;-77
2023/10/19 03:42:00;;;;;;;;;;;;;;;;;;4813338;29;77154;-77
2023/10/19 03:44:39;;;;;;;;;;;;;;;;;;4817236;29;106094;-76
2023/10/19 03:47:11;;;;;;;;;;;;;;;;;;4808642;29;121134;-77
2023/10/19 03:49:39;;;;;;;;;;;;;;;;;;4806140;29;82136;-76
2023/10/19 03:54:39;;;;;;;;;;;;;;;;;;4827390;29;71181;-77
2023/10/19 03:57:11;;;;;;;;;;;;;;;;;;4802881;29;182158;-77
2023/10/19 03:59:38;;;;;;;;;;;;;;;;;;4777650;29;245200;-77
2023/10/19 04:02:20;;;;;;;;;;;;;;;;;;4820263;29;87148;-78
2023/10/19 04:04:48;;;;;;;;;;;;;;;;;;4820855;29;106163;-76
2023/10/19 04:07:22;;;;;;;;;;;;;;;;;;4822205;29;103151;-77
2023/10/19 04:12:32;;;;;;;;;;;;;;;;;;4817336;29;102189;-77
2023/10/19 04:15:09;;;;;;;;;;;;;;;;;;4825132;29;82120;-77
2023/10/19 04:17:36;;;;;;;;;;;;;;;;;;4824638;29;65211;-77
2023/10/19 04:22:53;;;;;;;;;;;;;;;;;;4818070;29;82112;-77
2023/10/19 04:25:21;;;;;;;;;;;;;;;;;;4830620;29;45117;-77
2023/10/19 04:27:48;;;;;;;;;;;;;;;;;;4826175;29;69164;-76
2023/10/19 04:30:16;;;;;;;;;;;;;;;;;;4824939;29;66147;-76
2023/10/19 04:32:43;;;;;;;;;;;;;;;;;;4834780;29;60070;-76
2023/10/19 04:35:13;;;;;;;;;;;;;;;;;;4804427;29;96169;-76
2023/10/19 04:37:42;;;;;;;;;;;;;;;;;;4790241;29;146163;-77
2023/10/19 04:40:09;;;;;;;;;;;;;;;;;;4789116;29;276161;-76
2023/10/19 04:42:36;;;;;;;;;;;;;;;;;;4805358;29;182178;-76
2023/10/19 04:45:05;;;;;;;;;;;;;;;;;;4824467;29;82148;-77
2023/10/19 04:47:35;;;;;;;;;;;;;;;;;;4817130;29;53098;-76
2023/10/19 04:50:02;;;;;;;;;;;;;;;;;;4821509;29;45092;-77
2023/10/19 04:52:29;;;;;;;;;;;;;;;;;;4804389;29;77116;-76
2023/10/19 04:54:56;;;;;;;;;;;;;;;;;;4840126;29;29081;-76
2023/10/19 04:57:27;;;;;;;;;;;;;;;;;;4831836;29;25111;-76
2023/10/19 04:59:57;;;;;;;;;;;;;;;;;;4840157;29;29173;-76
2023/10/19 05:02:24;;;;;;;;;;;;;;;;;;4831233;29;37102;-75
2023/10/19 05:04:51;;;;;;;;;;;;;;;;;;4827323;29;28180;-76
2023/10/19 05:07:18;;;;;;;;;;;;;;;;;;4834335;29;29059;-75
2023/10/19 05:09:45;;;;;;;;;;;;;;;;;;4828197;29;51118;-76
2023/10/19 05:12:16;;;;;;;;;;;;;;;;;;4823735;29;65126;-75
2023/10/19 05:14:43;;;;;;;;;;;;;;;;;;4819844;29;49121;-75
2023/10/19 05:17:10;;;;;;;;;;;;;;;;;;4823695;29;84153;-75
2023/10/19 05:19:38;;;;;;;;;;;;;;;;;;4812534;29;96163;-76
2023/10/19 05:22:05;;;;;;;;;;;;;;;;;;4823745;29;50110;-76
2023/10/19 05:24:33;;;;;;;;;;;;;;;;;;4832136;29;32030;-76
2023/10/19 05:27:00;;;;;;;;;;;;;;;;;;4838627;29;29150;-75
2023/10/19 05:29:27;;;;;;;;;;;;;;;;;;4838946;29;28098;-75
2023/10/19 05:31:54;;;;;;;;;;;;;;;;;;4834414;29;26068;-75
2023/10/19 05:34:26;;;;;;;;;;;;;;;;;;4834756;29;29089;-75
2023/10/19 05:36:54;;;;;;;;;;;;;;;;;;4838638;29;30120;-74
2023/10/19 05:39:24;;;;;;;;;;;;;;;;;;4830635;29;28096;-74
2023/10/19 05:41:54;;;;;;;;;;;;;;;;;;4830110;29;26097;-75
2023/10/19 05:44:24;;;;;;;;;;;;;;;;;;4834342;29;32070;-74
2023/10/19 05:46:52;;;;;;;;;;;;;;;;;;4836111;29;25085;-74
2023/10/19 05:49:19;;;;;;;;;;;;;;;;;;4836499;29;32173;-75
2023/10/19 05:51:46;;;;;;;;;;;;;;;;;;4829328;29;25078;-74
2023/10/19 05:54:14;;;;;;;;;;;;;;;;;;4832109;29;28069;-74
2023/10/19 05:56:41;;;;;;;;;;;;;;;;;;4833114;29;29134;-74
2023/10/19 05:59:10;;;;;;;;;;;;;;;;;;4829733;29;33074;-75
2023/10/19 06:01:46;;;;;;;;;;;;;;;;;;4829584;29;28055;-75
2023/10/19 06:04:14;;;;;;;;;;;;;;;;;;4831517;29;28096;-74
2023/10/19 06:06:42;;;;;;;;;;;;;;;;;;4830539;29;33100;-75
2023/10/19 06:09:09;;;;;;;;;;;;;;;;;;4833985;29;30061;-74
2023/10/19 06:11:42;;;;;;;;;;;;;;;;;;4820573;29;25123;-74
2023/10/19 06:14:09;;;;;;;;;;;;;;;;;;4830643;29;29156;-74
2023/10/19 06:16:37;;;;;;;;;;;;;;;;;;4830908;29;27104;-74
2023/10/19 06:19:05;;;;;;;;;;;;;;;;;;4832778;29;29172;-74
2023/10/19 06:21:33;;;;;;;;;;;;;;;;;;4830031;29;32115;-74
2023/10/19 06:24:00;;;;;;;;;;;;;;;;;;4834200;29;25110;-74
2023/10/19 06:26:28;;;;;;;;;;;;;;;;;;4834269;29;27080;-76
2023/10/19 06:28:59;;;;;;;;;;;;;;;;;;4827591;29;29037;-74
2023/10/19 06:31:26;;;;;;;;;;;;;;;;;;4837883;29;25132;-74
2023/10/19 06:33:53;;;;;;;;;;;;;;;;;;4828374;29;38119;-74
2023/10/19 06:36:21;;;;;;;;;;;;;;;;;;4829419;29;27176;-74
2023/10/19 06:38:50;;;;;;;;;;;;;;;;;;4836090;29;26107;-74
2023/10/19 06:41:18;;;;;;;;;;;;;;;;;;4826379;29;25063;-74
2023/10/19 06:43:46;;;;;;;;;;;;;;;;;;4827732;29;27078;-74
2023/10/19 06:46:16;;;;;;;;;;;;;;;;;;4826689;29;29136;-74
2023/10/19 06:48:43;;;;;;;;;;;;;;;;;;4829768;29;29075;-74
2023/10/19 06:51:11;;;;;;;;;;;;;;;;;;4831510;29;31080;-74
2023/10/19 06:53:38;;;;;;;;;;;;;;;;;;4832039;29;28075;-73
2023/10/19 06:56:06;;;;;;;;;;;;;;;;;;4832359;29;27072;-75
2023/10/19 06:58:34;;;;;;;;;;;;;;;;;;4829212;29;30155;-74
2023/10/19 07:01:10;;;;;;;;;;;;;;;;;;4828527;29;28062;-74
2023/10/19 07:03:37;;;;;;;;;;;;;;;;;;4826886;29;32072;-73
2023/10/19 07:06:07;;;;;;;;;;;;;;;;;;4831877;29;31084;-74
2023/10/19 07:08:38;;;;;;;;;;;;;;;;;;4830787;29;31079;-74
2023/10/19 07:11:05;;;;;;;;;;;;;;;;;;4828449;29;32071;-73
2023/10/19 07:13:33;;;;;;;;;;;;;;;;;;4832977;29;32063;-73
2023/10/19 07:16:01;;;;;;;;;;;;;;;;;;4833019;29;28124;-74
2023/10/19 07:18:28;;;;;;;;;;;;;;;;;;4828134;29;28153;-73
2023/10/19 07:21:02;;;;;;;;;;;;;;;;;;4831309;29;26164;-73
2023/10/19 07:23:33;;;;;;;;;;;;;;;;;;4836491;29;28069;-74
2023/10/19 07:26:00;;;;;;;;;;;;;;;;;;4836896;29;25110;-73
2023/10/19 07:28:27;;;;;;;;;;;;;;;;;;4828721;29;32086;-74
2023/10/19 07:30:55;;;;;;;;;;;;;;;;;;4835013;29;30073;-74
2023/10/19 07:33:23;;;;;;;;;;;;;;;;;;4835402;29;26084;-74
2023/10/19 07:35:59;;;;;;;;;;;;;;;;;;4837553;29;32142;-73
2023/10/19 07:38:28;;;;;;;;;;;;;;;;;;4832489;29;28118;-74
2023/10/19 07:40:55;;;;;;;;;;;;;;;;;;4835264;29;28147;-73
2023/10/19 07:43:25;;;;;;;;;;;;;;;;;;4822963;29;29128;-73
2023/10/19 07:45:52;;;;;;;;;;;;;;;;;;4833118;29;28116;-73
2023/10/19 07:48:20;;;;;;;;;;;;;;;;;;4831622;29;25118;-74
2023/10/19 07:50:47;;;;;;;;;;;;;;;;;;4838520;29;31152;-73
2023/10/19 07:53:14;;;;;;;;;;;;;;;;;;4829825;29;31071;-73
2023/10/19 07:55:43;;;;;;;;;;;;;;;;;;4825356;29;26089;-73
2023/10/19 07:58:10;;;;;;;;;;;;;;;;;;4830580;29;26071;-73
2023/10/19 08:00:38;;;;;;;;;;;;;;;;;;4838783;29;26076;-73
2023/10/19 08:03:05;;;;;;;;;;;;;;;;;;4832288;29;29063;-73
2023/10/19 08:05:36;;;;;;;;;;;;;;;;;;4837646;29;32201;-73
2023/10/19 08:08:04;;;;;;;;;;;;;;;;;;4839720;29;28110;-73
2023/10/19 08:10:31;;;;;;;;;;;;;;;;;;4838357;29;25129;-73
2023/10/19 08:12:59;;;;;;;;;;;;;;;;;;4836904;29;27069;-73
2023/10/19 08:15:26;;;;;;;;;;;;;;;;;;4831930;29;26096;-73
2023/10/19 08:17:56;;;;;;;;;;;;;;;;;;4837012;29;29072;-73
2023/10/19 08:20:24;;;;;;;;;;;;;;;;;;4834982;29;27077;-72
2023/10/19 08:22:52;;;;;;;;;;;;;;;;;;4842206;29;25120;-72
2023/10/19 08:25:23;;;;;;;;;;;;;;;;;;4841680;29;27056;-73
2023/10/19 08:27:56;;;;;;;;;;;;;;;;;;4829936;29;26078;-73
2023/10/19 08:30:23;;;;;;;;;;;;;;;;;;4838245;29;25068;-73
2023/10/19 08:32:54;;;;;;;;;;;;;;;;;;4837534;29;30077;-73
2023/10/19 08:35:24;;;;;;;;;;;;;;;;;;4835326;29;26136;-73
2023/10/19 08:37:52;;;;;;;;;;;;;;;;;;4831632;29;28123;-73
2023/10/19 08:40:19;;;;;;;;;;;;;;;;;;4833241;29;29076;-72
2023/10/19 08:42:47;;;;;;;;;;;;;;;;;;4834898;29;25101;-73
2023/10/19 08:45:14;;;;;;;;;;;;;;;;;;4840491;29;30118;-72
2023/10/19 08:47:48;;;;;;;;;;;;;;;;;;4830462;29;26094;-73
2023/10/19 08:50:16;;;;;;;;;;;;;;;;;;4841397;29;25118;-73
2023/10/19 08:52:43;;;;;;;;;;;;;;;;;;4831198;29;26115;-73
2023/10/19 08:55:12;;;;;;;;;;;;;;;;;;4839580;29;25064;-73
2023/10/19 08:57:39;;;;;;;;;;;;;;;;;;4838395;29;25142;-73
2023/10/19 09:00:07;;;;;;;;;;;;;;;;;;4835494;29;28099;-73
2023/10/19 09:02:34;;;;;;;;;;;;;;;;;;4828807;29;27081;-73
2023/10/19 09:05:01;;;;;;;;;;;;;;;;;;4842799;29;25102;-72
2023/10/19 09:07:30;;;;;;;;;;;;;;;;;;4840470;29;28149;-72
2023/10/19 09:10:01;;;;;;;;;;;;;;;;;;4833368;29;27057;-73
2023/10/19 09:12:28;;;;;;;;;;;;;;;;;;4833598;29;29152;-72
2023/10/19 09:14:55;;;;;;;;;;;;;;;;;;4829678;29;28110;-72
2023/10/19 09:17:22;;;;;;;;;;;;;;;;;;4831351;29;29112;-72
2023/10/19 09:19:49;;;;;;;;;;;;;;;;;;4837532;29;31076;-72
2023/10/19 09:22:18;;;;;;;;;;;;;;;;;;4839897;29;28067;-72
2023/10/19 09:24:45;;;;;;;;;;;;;;;;;;4827818;29;25138;-71
2023/10/19 09:27:12;;;;;;;;;;;;;;;;;;4835324;29;31121;-71
2023/10/19 09:29:42;;;;;;;;;;;;;;;;;;4838245;29;28106;-71
2023/10/19 09:32:09;;;;;;;;;;;;;;;;;;4844510;29;33169;-71
2023/10/19 09:34:36;;;;;;;;;;;;;;;;;;4835083;29;25078;-71
2023/10/19 09:37:03;;;;;;;;;;;;;;;;;;4841662;29;31122;-71
2023/10/19 09:39:34;;;;;;;;;;;;;;;;;;4842585;29;25100;-71
2023/10/19 09:42:05;;;;;;;;;;;;;;;;;;4846588;29;32102;-71
2023/10/19 09:44:36;;;;;;;;;;;;;;;;;;4838409;29;31094;-71
2023/10/19 09:47:03;;;;;;;;;;;;;;;;;;4844514;29;29062;-71
2023/10/19 09:49:30;;;;;;;;;;;;;;;;;;4841973;29;25075;-69
2023/10/19 09:51:57;;;;;;;;;;;;;;;;;;4836492;29;36071;-69
2023/10/19 09:54:35;;;;;;;;;;;;;;;;;;4839539;29;39171;-71
2023/10/19 09:57:02;;;;;;;;;;;;;;;;;;4837473;29;53088;-74
2023/10/19 09:59:29;;;;;;;;;;;;;;;;;;4840538;29;37071;-71
2023/10/19 10:01:56;;;;;;;;;;;;;;;;;;4836607;29;26116;-71
2023/10/19 10:04:23;;;;;;;;;;;;;;;;;;4831044;29;25111;-71
2023/10/19 10:06:51;;;;;;;;;;;;;;;;;;4839904;29;28184;-71
2023/10/19 10:09:21;;;;;;;;;;;;;;;;;;4840513;29;25053;-71
2023/10/19 10:11:48;;;;;;;;;;;;;;;;;;4847966;29;26094;-71
2023/10/19 10:14:15;;;;;;;;;;;;;;;;;;4845806;29;29068;-71
2023/10/19 10:16:42;;;;;;;;;;;;;;;;;;4844006;29;25063;-71
2023/10/19 10:19:10;;;;;;;;;;;;;;;;;;4845721;29;25161;-70
2023/10/19 10:21:38;;;;;;;;;;;;;;;;;;4833859;29;29070;-69
2023/10/19 10:24:05;;;;;;;;;;;;;;;;;;4836197;29;27198;-70
2023/10/19 10:26:36;;;;;;;;;;;;;;;;;;4845936;29;26077;-69
2023/10/19 10:29:04;;;;;;;;;;;;;;;;;;4840626;29;45079;-69
2023/10/19 10:31:31;;;;;;;;;;;;;;;;;;4841192;29;29086;-69
2023/10/19 10:33:58;;;;;;;;;;;;;;;;;;4845512;29;31072;-69
2023/10/19 10:36:26;;;;;;;;;;;;;;;;;;4848623;29;26059;-69
2023/10/19 10:38:54;;;;;;;;;;;;;;;;;;4843145;29;28181;-69
2023/10/19 10:41:21;;;;;;;;;;;;;;;;;;4846891;29;27057;-69
2023/10/19 10:43:49;;;;;;;;;;;;;;;;;;4844287;29;27091;-69
2023/10/19 10:46:16;;;;;;;;;;;;;;;;;;4839278;29;37058;-69
2023/10/19 10:48:44;;;;;;;;;;;;;;;;;;4847893;29;25122;-68
2023/10/19 10:51:11;;;;;;;;;;;;;;;;;;4839344;29;25188;-69
2023/10/19 10:53:38;;;;;;;;;;;;;;;;;;4835883;29;32102;-68
2023/10/19 10:56:05;;;;;;;;;;;;;;;;;;4843377;29;35143;-68
2023/10/19 10:58:32;;;;;;;;;;;;;;;;;;4840998;29;25109;-69
2023/10/19 11:01:00;;;;;;;;;;;;;;;;;;4840662;29;27107;-70
2023/10/19 11:03:30;;;;;;;;;;;;;;;;;;4833396;29;26083;-69
2023/10/19 11:05:59;;;;;;;;;;;;;;;;;;4841105;29;25128;-70
2023/10/19 11:08:26;;;;;;;;;;;;;;;;;;4837099;29;25102;-69
2023/10/19 11:10:54;;;;;;;;;;;;;;;;;;4840474;29;27125;-69
2023/10/19 11:13:22;;;;;;;;;;;;;;;;;;4843562;29;28080;-69
2023/10/19 11:15:49;;;;;;;;;;;;;;;;;;4837031;29;31364;-69
2023/10/19 11:18:19;;;;;;;;;;;;;;;;;;4844238;29;29074;-70
2023/10/19 11:20:46;;;;;;;;;;;;;;;;;;4841627;29;28077;-70
2023/10/19 11:23:13;;;;;;;;;;;;;;;;;;4839621;29;25169;-70
2023/10/19 11:25:40;;;;;;;;;;;;;;;;;;4830606;29;31149;-70
2023/10/19 11:28:07;;;;;;;;;;;;;;;;;;4838623;29;26143;-69
2023/10/19 11:30:35;;;;;;;;;;;;;;;;;;4830409;29;35076;-70
2023/10/19 11:33:02;;;;;;;;;;;;;;;;;;4838873;29;27082;-70
2023/10/19 11:35:29;;;;;;;;;;;;;;;;;;4836247;29;25074;-70
2023/10/19 11:37:58;;;;;;;;;;;;;;;;;;4840072;29;32090;-70
2023/10/19 11:40:26;;;;;;;;;;;;;;;;;;4844036;29;31081;-70
2023/10/19 11:42:56;;;;;;;;;;;;;;;;;;4835609;29;27133;-70
2023/10/19 11:45:26;;;;;;;;;;;;;;;;;;4843998;29;35064;-70
2023/10/19 11:47:53;;;;;;;;;;;;;;;;;;4835049;29;25158;-70
2023/10/19 11:50:20;;;;;;;;;;;;;;;;;;4832597;29;30084;-71
2023/10/19 11:52:48;;;;;;;;;;;;;;;;;;4840132;29;27125;-70
2023/10/19 11:55:15;;;;;;;;;;;;;;;;;;4843403;29;25077;-70
2023/10/19 11:57:43;;;;;;;;;;;;;;;;;;4844414;29;25097;-70
2023/10/19 12:00:13;;;;;;;;;;;;;;;;;;4836270;29;25103;-70
2023/10/19 12:02:43;;;;;;;;;;;;;;;;;;4841246;29;25106;-70
2023/10/19 12:05:10;;;;;;;;;;;;;;;;;;4830652;29;28189;-71
2023/10/19 12:07:38;;;;;;;;;;;;;;;;;;4835895;29;25148;-70
2023/10/19 12:10:05;;;;;;;;;;;;;;;;;;4840650;29;25085;-70
2023/10/19 12:12:32;;;;;;;;;;;;;;;;;;4832711;29;29099;-70
2023/10/19 12:15:05;;;;;;;;;;;;;;;;;;4833349;29;53068;-71
2023/10/19 12:17:32;;;;;;;;;;;;;;;;;;4833341;29;25231;-71
2023/10/19 12:19:59;;;;;;;;;;;;;;;;;;4826584;29;53181;-71
2023/10/19 12:22:31;;;;;;;;;;;;;;;;;;4836587;29;30061;-70
2023/10/19 12:24:59;;;;;;;;;;;;;;;;;;4834714;29;25142;-71
2023/10/19 12:27:26;;;;;;;;;;;;;;;;;;4819173;29;34147;-70
2023/10/19 12:29:54;;;;;;;;;;;;;;;;;;4837250;29;25161;-70
2023/10/19 12:32:21;;;;;;;;;;;;;;;;;;4843220;29;25086;-70
2023/10/19 12:34:57;;;;;;;;;;;;;;;;;;4831693;29;37093;-68
2023/10/19 12:37:24;;;;;;;;;;;;;;;;;;4827884;29;36062;-68
2023/10/19 12:39:54;;;;;;;;;;;;;;;;;;4835465;29;31153;-68
2023/10/19 12:42:22;;;;;;;;;;;;;;;;;;4839529;29;25113;-70
2023/10/19 12:44:51;;;;;;;;;;;;;;;;;;4834946;29;59123;-68
2023/10/19 12:47:18;;;;;;;;;;;;;;;;;;4836995;29;25072;-68
2023/10/19 12:49:45;;;;;;;;;;;;;;;;;;4836777;29;27108;-69
2023/10/19 12:52:14;;;;;;;;;;;;;;;;;;4839239;29;37074;-68
2023/10/19 12:54:45;;;;;;;;;;;;;;;;;;4831036;29;30063;-67
2023/10/19 12:57:12;;;;;;;;;;;;;;;;;;4831431;29;30072;-69
2023/10/19 12:59:39;;;;;;;;;;;;;;;;;;4835599;29;42152;-68
2023/10/19 13:02:14;;;;;;;;;;;;;;;;;;4840462;29;25141;-70
2023/10/19 13:04:42;;;;;;;;;;;;;;;;;;4834623;29;31073;-68
2023/10/19 13:07:12;;;;;;;;;;;;;;;;;;4834146;29;29145;-68
2023/10/19 13:09:44;;;;;;;;;;;;;;;;;;4838295;29;27076;-69
2023/10/19 13:12:12;;;;;;;;;;;;;;;;;;4837663;29;27116;-69
2023/10/19 13:14:40;;;;;;;;;;;;;;;;;;4835990;29;25110;-69
2023/10/19 13:17:07;;;;;;;;;;;;;;;;;;4831483;29;25129;-69
2023/10/19 13:19:36;;;;;;;;;;;;;;;;;;4832299;29;24890;-69
2023/10/19 13:22:05;;;;;;;;;;;;;;;;;;4835433;29;26111;-69
2023/10/19 13:24:40;;;;;;;;;;;;;;;;;;4835496;29;27143;-68
2023/10/19 13:27:08;;;;;;;;;;;;;;;;;;4838199;29;25096;-69
2023/10/19 13:29:39;;;;;;;;;;;;;;;;;;4840366;29;28123;-69
2023/10/19 13:32:06;;;;;;;;;;;;;;;;;;4837552;29;26063;-68
2023/10/19 13:34:33;;;;;;;;;;;;;;;;;;4838913;29;25072;-69
2023/10/19 13:37:00;;;;;;;;;;;;;;;;;;4835547;29;29090;-68
2023/10/19 13:39:28;;;;;;;;;;;;;;;;;;4829455;29;29178;-69
2023/10/19 13:41:55;;;;;;;;;;;;;;;;;;4839530;29;28070;-68
2023/10/19 13:44:23;;;;;;;;;;;;;;;;;;4841673;29;28120;-69
2023/10/19 13:46:54;;;;;;;;;;;;;;;;;;4839052;29;29082;-68
2023/10/19 13:49:22;;;;;;;;;;;;;;;;;;4839858;29;29083;-68
2023/10/19 13:51:49;;;;;;;;;;;;;;;;;;4833875;29;29113;-68
2023/10/19 13:54:16;;;;;;;;;;;;;;;;;;4828981;29;25656;-68
2023/10/19 13:56:44;;;;;;;;;;;;;;;;;;4833138;29;29105;-68
2023/10/19 13:59:12;;;;;;;;;;;;;;;;;;4824114;29;28089;-69
2023/10/19 14:01:50;;;;;;;;;;;;;;;;;;4816148;29;26102;-69
2023/10/19 14:04:17;;;;;;;;;;;;;;;;;;4833021;29;28085;-69
2023/10/19 14:06:49;;;;;;;;;;;;;;;;;;4820131;29;27100;-69
2023/10/19 14:09:17;;;;;;;;;;;;;;;;;;4827677;29;27073;-68
2023/10/19 14:11:47;;;;;;;;;;;;;;;;;;4830337;29;25089;-69
2023/10/19 14:14:14;;;;;;;;;;;;;;;;;;4831945;29;29203;-69
2023/10/19 14:16:42;;;;;;;;;;;;;;;;;;4846684;29;25069;-69
2023/10/19 14:19:09;;;;;;;;;;;;;;;;;;4825168;29;25107;-69
2023/10/19 14:21:40;;;;;;;;;;;;;;;;;;4828157;29;26091;-70
2023/10/19 14:24:08;;;;;;;;;;;;;;;;;;4836652;29;25117;-69
2023/10/19 14:26:35;;;;;;;;;;;;;;;;;;4832459;29;26059;-69
2023/10/19 14:29:02;;;;;;;;;;;;;;;;;;4833798;29;25117;-69
2023/10/19 14:31:29;;;;;;;;;;;;;;;;;;4831274;29;26265;-69
2023/10/19 14:33:58;;;;;;;;;;;;;;;;;;4832178;29;28072;-69
2023/10/19 14:36:25;;;;;;;;;;;;;;;;;;4827109;29;25071;-68
2023/10/19 14:38:55;;;;;;;;;;;;;;;;;;4829735;29;28062;-69
2023/10/19 14:41:22;;;;;;;;;;;;;;;;;;4833014;29;28025;-69
2023/10/19 14:43:52;;;;;;;;;;;;;;;;;;4835299;29;28172;-69
2023/10/19 14:46:19;;;;;;;;;;;;;;;;;;4837193;29;28077;-69
2023/10/19 14:48:46;;;;;;;;;;;;;;;;;;4834599;29;28153;-69
2023/10/19 14:51:14;;;;;;;;;;;;;;;;;;4835420;29;25074;-69
2023/10/19 14:53:41;;;;;;;;;;;;;;;;;;4833268;29;29056;-69
2023/10/19 14:56:09;;;;;;;;;;;;;;;;;;4820893;29;25076;-69
2023/10/19 14:58:39;;;;;;;;;;;;;;;;;;4834157;29;28093;-70
2023/10/19 15:01:10;;;;;;;;;;;;;;;;;;4821365;29;28085;-70
2023/10/19 15:03:37;;;;;;;;;;;;;;;;;;4827292;29;27146;-71
2023/10/19 15:06:04;;;;;;;;;;;;;;;;;;4830163;29;26139;-70
2023/10/19 15:08:31;;;;;;;;;;;;;;;;;;4836685;29;27094;-70
2023/10/19 15:10:59;;;;;;;;;;;;;;;;;;4831973;29;27084;-71
2023/10/19 15:13:26;;;;;;;;;;;;;;;;;;4829648;29;25159;-70
2023/10/19 15:15:54;;;;;;;;;;;;;;;;;;4833480;29;27083;-70
2023/10/19 15:18:22;;;;;;;;;;;;;;;;;;4837319;29;29066;-69
2023/10/19 15:20:49;;;;;;;;;;;;;;;;;;4838290;29;27066;-70
2023/10/19 15:23:16;;;;;;;;;;;;;;;;;;4841918;29;28098;-70
2023/10/19 15:25:43;;;;;;;;;;;;;;;;;;4823741;29;25086;-70
2023/10/19 15:28:12;;;;;;;;;;;;;;;;;;4827364;29;25148;-70
2023/10/19 15:30:39;;;;;;;;;;;;;;;;;;4830404;29;25119;-70
2023/10/19 15:33:07;;;;;;;;;;;;;;;;;;4835195;29;29075;-70
2023/10/19 15:35:36;;;;;;;;;;;;;;;;;;4829504;29;25073;-70
2023/10/19 15:38:04;;;;;;;;;;;;;;;;;;4825137;29;25071;-70
2023/10/19 15:40:31;;;;;;;;;;;;;;;;;;4835237;29;27083;-71
2023/10/19 15:43:00;;;;;;;;;;;;;;;;;;4835782;29;25175;-69
2023/10/19 15:45:27;;;;;;;;;;;;;;;;;;4824464;29;28023;-70
2023/10/19 15:47:56;;;;;;;;;;;;;;;;;;4825143;29;25066;-69
2023/10/19 15:50:23;;;;;;;;;;;;;;;;;;4829355;29;26112;-69
2023/10/19 15:52:51;;;;;;;;;;;;;;;;;;4830072;29;25083;-69
2023/10/19 15:55:21;;;;;;;;;;;;;;;;;;4834245;29;27091;-70
2023/10/19 15:57:51;;;;;;;;;;;;;;;;;;4836295;29;25165;-69
2023/10/19 16:00:19;;;;;;;;;;;;;;;;;;4824645;29;28086;-69
2023/10/19 16:02:47;;;;;;;;;;;;;;;;;;4834732;29;29098;-69
2023/10/19 16:05:15;;;;;;;;;;;;;;;;;;4836088;29;28071;-69
2023/10/19 16:07:42;;;;;;;;;;;;;;;;;;4834095;29;27127;-69
2023/10/19 16:10:10;;;;;;;;;;;;;;;;;;4832628;29;27070;-69
2023/10/19 16:12:37;;;;;;;;;;;;;;;;;;4828993;29;26068;-69
2023/10/19 16:15:04;;;;;;;;;;;;;;;;;;4834312;29;26078;-69
2023/10/19 16:17:32;;;;;;;;;;;;;;;;;;4831350;29;26091;-69
2023/10/19 16:20:02;;;;;;;;;;;;;;;;;;4825252;29;27063;-68
2023/10/19 16:22:29;;;;;;;;;;;;;;;;;;4827882;29;25075;-69
2023/10/19 16:24:59;;;;;;;;;;;;;;;;;;4834424;29;25048;-69
2023/10/19 16:27:27;;;;;;;;;;;;;;;;;;4838627;29;27055;-69
2023/10/19 16:29:54;;;;;;;;;;;;;;;;;;4831092;29;25131;-69
2023/10/19 16:32:24;;;;;;;;;;;;;;;;;;4832421;29;25064;-69
2023/10/19 16:34:52;;;;;;;;;;;;;;;;;;4829219;29;27069;-70
2023/10/19 16:37:23;;;;;;;;;;;;;;;;;;4828698;29;25107;-70
2023/10/19 16:39:58;;;;;;;;;;;;;;;;;;4831806;29;25071;-70
2023/10/19 16:42:26;;;;;;;;;;;;;;;;;;4835364;29;27078;-70
2023/10/19 16:44:53;;;;;;;;;;;;;;;;;;4837636;29;27175;-70
2023/10/19 16:47:22;;;;;;;;;;;;;;;;;;4824838;29;26062;-70
2023/10/19 16:49:49;;;;;;;;;;;;;;;;;;4828559;29;29108;-69
2023/10/19 16:52:17;;;;;;;;;;;;;;;;;;4837058;29;29665;-71
2023/10/19 16:54:47;;;;;;;;;;;;;;;;;;4829573;29;26176;-71
2023/10/19 16:57:14;;;;;;;;;;;;;;;;;;4825853;29;26158;-71
2023/10/19 16:59:42;;;;;;;;;;;;;;;;;;4833541;29;25145;-70
2023/10/19 17:02:09;;;;;;;;;;;;;;;;;;4831816;29;25064;-71
2023/10/19 17:04:37;;;;;;;;;;;;;;;;;;4826017;29;28070;-71
2023/10/19 17:07:04;;;;;;;;;;;;;;;;;;4827717;29;25089;-70
2023/10/19 17:09:34;;;;;;;;;;;;;;;;;;4829273;29;25110;-71
2023/10/19 17:12:01;;;;;;;;;;;;;;;;;;4833540;29;26135;-70
2023/10/19 17:14:28;;;;;;;;;;;;;;;;;;4836055;29;26165;-71
2023/10/19 17:16:55;;;;;;;;;;;;;;;;;;4835017;29;25068;-70
2023/10/19 17:19:23;;;;;;;;;;;;;;;;;;4820487;29;29268;-70